Ava, MO

9:15 PM CDT on August 22, 2014 (GMT -0500)
West Plains Municipal | Change Station
CLOSE
Current Station
Airport
Location: West Plains,
Elevation: 1227 ft
Nearby Weather Stations
Active Advisory: Heat Advisory

Elev 1227 ft 36.88 °N, 91.91 °W | Updated 22 minutes ago

Clear
Clear
82 °F
Feels Like 86 °F
N
0
Wind Variable Wind from North

Today
High -- | Low -- °F
--% Chance of Precip.
Yesterday
High -- | Low -- °F
Precip. -- in
6:33 AM 7:53 PM
Waning Crescent, 6% visible
Pressure 29.95 in
Visibility 10.0 miles
Clouds Clear
Heat Index 86 °F
Dew Point 70 °F
Humidity 67%
Rainfall 0.00 in
Snow Depth Not available.
UV 0 out of 12
Pollen 10.70 out of 12
Air Quality Not available.
Flu Activity Not available.
METAR KUNO 230153Z AUTO 00000KT 10SM CLR 28/21 A2999 RMK AO2 SLP141 T02780211

More Conditions Fewer Conditions

Pressure 29.95 in
Visibility 10.0 miles
Clouds Clear
Heat Index 86 °F
Dew Point 70 °F
Humidity 67%
Rainfall 0.00 in
Snow Depth Not available.
UV 0 out of 12
Pollen 10.70 out of 12
Air Quality Not available.
Flu Activity Not available.
METAR KUNO 230153Z AUTO 00000KT 10SM CLR 28/21 A2999 RMK AO2 SLP141 T02780211

More Conditions Fewer Conditions

10-Day Weather Forecast

Almanac

Astronomy

Aug. 22, 2014 Rise Set
Actual Time 6:33 AM CDT 7:53 PM CDT
Civil Twilight 6:06 AM CDT 8:20 PM CDT
Nautical Twilight 5:33 AM CDT 8:52 PM CDT
Astronomical Twilight 4:59 AM CDT 9:26 PM CDT
Moon 3:58 AM CDT (8/22) 6:00 PM CDT (8/22)
Length of Visible Light 14h 13m
Length of Day
13h 19m
Tomorrow will be 2m 10s shorter.
Waning Crescent, 6% of the Moon is Illuminated
Today
Waning Crescent
Aug 25
New
Sep 2
First Quarter
Sep 8
Full
Sep 15
Last Quarter

Today's Extremes

State Highs State Lows

Community

WunderPhotos

Upload Photos

1,746,346 photos uploaded!

WunderBlogs® & News

Nearby

Snow Depth

Station Depth Elevation
No new snow has been reported.

Earthquake Activity

City Distance Mag. Time & Date
No recent earthquake activity has been reported nearby.
Minimum magnitude displayed is 2.5.

Coastal Water Temperatures

Place Temperature
No Stations Reporting

Nearby Weather Stations